createdAt,value
2019-04-09T00:01:13.721Z,14.30
2019-04-09T00:03:44.007Z,14.20
2019-04-09T00:06:14.735Z,14.10
2019-04-09T00:08:45.663Z,14.10
2019-04-09T00:11:15.792Z,14.00
2019-04-09T00:13:45.811Z,14.00
2019-04-09T00:16:15.736Z,14.00
2019-04-09T00:18:45.630Z,14.00
2019-04-09T00:21:15.506Z,13.90
2019-04-09T00:23:45.232Z,13.90
2019-04-09T00:26:15.609Z,13.80
2019-04-09T00:28:45.503Z,13.70
2019-04-09T00:31:15.430Z,13.80
2019-04-09T00:33:45.277Z,13.70
2019-04-09T00:36:15.438Z,13.60
2019-04-09T00:38:45.451Z,13.60
2019-04-09T00:41:15.442Z,13.60
2019-04-09T00:43:45.567Z,13.60
2019-04-09T00:46:15.676Z,13.50
2019-04-09T00:48:46.548Z,13.50
2019-04-09T00:51:16.850Z,13.40
2019-04-09T00:53:46.853Z,13.30
2019-04-09T00:56:16.829Z,13.30
2019-04-09T00:58:46.647Z,13.30
2019-04-09T01:01:18.104Z,13.30
2019-04-09T01:03:48.595Z,13.20
2019-04-09T01:06:18.852Z,13.20
2019-04-09T01:08:48.835Z,13.10
2019-04-09T01:11:19.325Z,13.10
2019-04-09T01:13:49.333Z,13.10
2019-04-09T01:16:19.942Z,13.00
2019-04-09T01:18:50.127Z,12.90
2019-04-09T01:21:20.928Z,12.90
2019-04-09T01:23:51.265Z,12.80
2019-04-09T01:26:22.771Z,12.80
2019-04-09T01:28:53.420Z,12.70
2019-04-09T01:31:41.934Z,12.60
2019-04-09T01:34:30.100Z,12.60
2019-04-09T01:37:14.839Z,12.50
2019-04-09T01:39:46.249Z,12.50
2019-04-09T01:42:33.150Z,12.40
2019-04-09T01:45:07.271Z,12.30
2019-04-09T01:47:55.543Z,12.30
2019-04-09T01:50:33.247Z,12.30
2019-04-09T01:53:14.629Z,12.20
2019-04-09T01:55:51.891Z,12.10
2019-04-09T01:58:39.741Z,12.10
2019-04-09T02:01:15.225Z,12.00
2019-04-09T02:03:45.383Z,12.00
2019-04-09T02:06:16.961Z,11.90
2019-04-09T02:08:50.958Z,11.90
2019-04-09T02:11:38.566Z,11.90
2019-04-09T02:14:15.943Z,11.90
2019-04-09T02:16:47.356Z,11.70
2019-04-09T02:19:35.933Z,11.70
2019-04-09T02:22:07.358Z,11.60
2019-04-09T02:24:54.828Z,11.50
2019-04-09T02:27:45.091Z,11.50
2019-04-09T02:30:19.131Z,11.50
2019-04-09T02:33:00.556Z,11.40
2019-04-09T02:35:35.032Z,11.40
2019-04-09T02:38:10.494Z,11.40
2019-04-09T02:40:46.801Z,11.40
2019-04-09T02:43:21.030Z,11.30
2019-04-09T02:45:50.525Z,11.30
2019-04-09T02:48:39.858Z,11.20
2019-04-09T02:51:12.487Z,11.20
2019-04-09T02:53:55.724Z,11.20
2019-04-09T02:56:25.329Z,11.20
2019-04-09T02:59:13.889Z,11.10
2019-04-09T03:02:01.487Z,11.10
2019-04-09T03:04:33.981Z,11.10
2019-04-09T03:07:09.573Z,11.00
2019-04-09T03:09:44.847Z,11.00
2019-04-09T03:12:17.605Z,10.90
2019-04-09T03:14:49.214Z,10.90
2019-04-09T03:17:23.783Z,10.90
2019-04-09T03:20:10.142Z,10.80
2019-04-09T03:22:48.372Z,10.80
2019-04-09T03:25:19.938Z,10.70
2019-04-09T03:28:14.041Z,10.50
2019-04-09T03:30:42.565Z,10.50
2019-04-09T03:33:31.954Z,10.40
2019-04-09T03:36:03.513Z,10.40
2019-04-09T03:38:35.014Z,10.40
2019-04-09T03:41:06.512Z,10.40
2019-04-09T03:43:37.881Z,10.30
2019-04-09T03:46:09.289Z,10.30
2019-04-09T03:48:44.640Z,10.30
2019-04-09T03:51:31.884Z,10.30
2019-04-09T03:54:04.124Z,10.20
2019-04-09T03:56:46.306Z,10.20
2019-04-09T03:59:33.995Z,10.20
2019-04-09T04:02:11.503Z,10.20
2019-04-09T04:04:43.138Z,10.10
2019-04-09T04:07:31.367Z,10.10
2019-04-09T04:10:07.375Z,10.10
2019-04-09T04:12:41.934Z,10.00
2019-04-09T04:15:14.127Z,10.10
2019-04-09T04:17:44.643Z,10.00
2019-04-09T04:20:33.358Z,10.00
2019-04-09T04:23:21.170Z,10.00
2019-04-09T04:26:02.701Z,9.90
2019-04-09T04:28:42.920Z,9.90
2019-04-09T04:31:30.838Z,9.80
2019-04-09T04:34:18.860Z,9.70
2019-04-09T04:36:56.194Z,9.70
2019-04-09T04:39:43.923Z,9.70
2019-04-09T04:42:18.033Z,9.80
2019-04-09T04:44:53.625Z,9.70
2019-04-09T04:47:30.728Z,9.60
2019-04-09T04:50:02.396Z,9.50
2019-04-09T04:52:33.993Z,9.40
2019-04-09T04:55:10.526Z,9.40
2019-04-09T04:57:51.650Z,9.40
2019-04-09T05:00:29.397Z,9.40
2019-04-09T05:03:01.888Z,9.40
2019-04-09T05:05:49.445Z,9.30
2019-04-09T05:08:27.931Z,9.30
2019-04-09T05:10:59.880Z,9.30
2019-04-09T05:13:47.240Z,9.30
2019-04-09T05:16:18.825Z,9.40
2019-04-09T05:18:53.328Z,9.40
2019-04-09T05:21:28.944Z,9.50
2019-04-09T05:24:00.371Z,9.40
2019-04-09T05:26:31.841Z,9.30
2019-04-09T05:29:06.296Z,9.30
2019-04-09T05:31:34.798Z,9.30
2019-04-09T05:34:23.338Z,9.20
2019-04-09T05:36:56.226Z,9.30
2019-04-09T05:39:28.207Z,9.30
2019-04-09T05:42:08.793Z,9.30
2019-04-09T05:44:38.276Z,9.40
2019-04-09T05:47:26.194Z,9.50
2019-04-09T05:50:12.997Z,9.60
2019-04-09T05:52:53.799Z,9.70
2019-04-09T05:55:33.296Z,9.80
2019-04-09T05:58:10.945Z,9.90
2019-04-09T06:00:49.075Z,10.10
2019-04-09T06:03:19.883Z,10.10
2019-04-09T06:05:53.800Z,10.00
2019-04-09T06:08:27.230Z,10.00
2019-04-09T06:10:56.572Z,9.90
2019-04-09T06:13:27.222Z,9.80
2019-04-09T06:18:09.980Z,9.70
2019-04-09T06:20:40.476Z,9.60
2019-04-09T06:23:10.224Z,9.70
2019-04-09T06:25:40.177Z,9.60
2019-04-09T06:28:10.739Z,9.50
2019-04-09T06:30:40.671Z,9.40
2019-04-09T06:33:13.128Z,9.40
2019-04-09T06:35:48.355Z,9.40
2019-04-09T06:38:23.045Z,9.40
2019-04-09T06:40:54.995Z,9.50
2019-04-09T06:43:42.607Z,9.40
2019-04-09T06:46:30.232Z,9.40
2019-04-09T06:49:04.624Z,9.40
2019-04-09T06:51:50.739Z,9.40
2019-04-09T06:54:32.783Z,9.50
2019-04-09T06:57:09.951Z,9.50
2019-04-09T06:59:39.824Z,9.40
2019-04-09T07:02:20.013Z,9.50
2019-04-09T07:04:55.233Z,9.50
2019-04-09T07:07:29.001Z,9.50
2019-04-09T07:10:18.179Z,9.50
2019-04-09T07:12:53.376Z,9.50
2019-04-09T07:15:41.758Z,9.50
2019-04-09T07:18:16.293Z,9.70
2019-04-09T07:21:05.568Z,9.60
2019-04-09T07:23:42.688Z,9.60
2019-04-09T07:26:24.245Z,9.50
2019-04-09T07:28:58.164Z,9.60
2019-04-09T07:31:29.973Z,9.50
2019-04-09T07:34:19.312Z,9.40
2019-04-09T07:36:56.885Z,9.40
2019-04-09T07:39:31.441Z,9.30
2019-04-09T07:42:05.683Z,9.30
2019-04-09T07:44:35.251Z,9.40
2019-04-09T07:47:21.991Z,9.50
2019-04-09T07:50:11.475Z,9.40
2019-04-09T07:52:59.604Z,9.60
2019-04-09T07:55:30.788Z,9.50
2019-04-09T07:58:02.259Z,9.40
2019-04-09T08:00:50.438Z,9.50
2019-04-09T08:03:30.596Z,9.60
2019-04-09T08:06:04.598Z,9.70
2019-04-09T08:08:40.178Z,9.70
2019-04-09T08:11:24.685Z,9.70
2019-04-09T08:14:12.567Z,9.80
2019-04-09T08:16:53.115Z,9.80
2019-04-09T08:19:42.901Z,9.90
2019-04-09T08:22:30.270Z,9.90
2019-04-09T08:25:01.907Z,10.00
2019-04-09T08:27:49.607Z,10.30
2019-04-09T08:30:31.253Z,10.10
2019-04-09T08:32:58.792Z,10.00
2019-04-09T08:35:39.231Z,10.00
2019-04-09T08:38:22.201Z,10.10
2019-04-09T08:41:04.472Z,10.10
2019-04-09T08:43:37.306Z,10.10
2019-04-09T08:46:15.777Z,10.10
2019-04-09T08:48:49.560Z,10.10
2019-04-09T08:51:39.224Z,10.20
2019-04-09T08:54:12.472Z,10.20
2019-04-09T08:56:45.670Z,10.20
2019-04-09T08:59:27.366Z,10.10
2019-04-09T09:02:22.628Z,10.10
2019-04-09T09:04:58.223Z,10.20
2019-04-09T09:07:28.334Z,10.20
2019-04-09T09:10:01.562Z,10.30
2019-04-09T09:12:44.864Z,10.50
2019-04-09T09:15:25.063Z,10.50
2019-04-09T09:17:59.286Z,10.50
2019-04-09T09:20:49.025Z,10.50
2019-04-09T09:23:35.522Z,10.50
2019-04-09T09:26:24.062Z,10.50
2019-04-09T09:28:55.601Z,10.60
2019-04-09T09:31:30.971Z,10.70
2019-04-09T09:34:06.545Z,10.80
2019-04-09T09:36:54.407Z,10.80
2019-04-09T09:39:37.012Z,10.90
2019-04-09T09:42:23.432Z,10.90
2019-04-09T09:45:11.161Z,11.10
2019-04-09T09:47:50.314Z,11.20
2019-04-09T09:50:41.782Z,11.30
2019-04-09T09:53:14.192Z,11.40
2019-04-09T09:55:57.420Z,11.30
2019-04-09T09:58:27.520Z,11.30
2019-04-09T10:01:08.061Z,11.30
2019-04-09T10:03:49.399Z,11.30
2019-04-09T10:06:21.699Z,11.40
2019-04-09T10:08:52.282Z,11.60
2019-04-09T10:11:23.729Z,11.80
2019-04-09T10:13:57.305Z,11.80
2019-04-09T10:16:38.958Z,12.00
2019-04-09T10:19:13.300Z,12.10
2019-04-09T10:21:49.665Z,12.20
2019-04-09T10:24:30.879Z,12.40
2019-04-09T10:26:56.595Z,12.50
2019-04-09T10:29:32.880Z,12.50
2019-04-09T10:32:07.870Z,12.50
2019-04-09T10:34:56.310Z,12.50
2019-04-09T10:37:30.736Z,12.40
2019-04-09T10:40:06.486Z,12.50
2019-04-09T10:42:38.031Z,12.60
2019-04-09T10:45:13.206Z,12.90
2019-04-09T10:48:00.809Z,13.00
2019-04-09T10:50:34.649Z,13.10
2019-04-09T10:53:04.788Z,13.10
2019-04-09T10:55:55.983Z,13.10
2019-04-09T10:58:30.016Z,13.10
2019-04-09T11:01:09.770Z,13.00
2019-04-09T11:03:39.424Z,13.00
2019-04-09T11:06:17.962Z,13.10
2019-04-09T11:08:58.109Z,13.30
2019-04-09T11:11:29.476Z,13.30
2019-04-09T11:14:04.312Z,13.40
2019-04-09T11:16:36.011Z,13.50
2019-04-09T11:19:19.169Z,13.40
2019-04-09T11:21:50.054Z,13.20
2019-04-09T11:24:21.901Z,13.20
2019-04-09T11:27:00.858Z,13.20
2019-04-09T11:29:44.201Z,13.30
2019-04-09T11:32:30.466Z,13.50
2019-04-09T11:35:04.775Z,13.70
2019-04-09T11:37:39.998Z,13.80
2019-04-09T11:40:12.692Z,13.90
2019-04-09T11:42:47.663Z,14.00
2019-04-09T11:45:29.374Z,14.00
2019-04-09T11:48:09.935Z,14.00
2019-04-09T11:50:40.320Z,14.20
2019-04-09T11:53:20.779Z,14.20
2019-04-09T11:55:53.698Z,14.20
2019-04-09T11:58:40.935Z,14.10
2019-04-09T12:01:18.736Z,14.00
2019-04-09T12:04:03.353Z,13.90
2019-04-09T12:06:35.523Z,13.90
2019-04-09T12:09:27.804Z,14.00
2019-04-09T12:12:06.639Z,14.10
2019-04-09T12:14:46.858Z,14.10
2019-04-09T12:17:22.691Z,14.30
2019-04-09T12:20:02.418Z,14.40
2019-04-09T12:22:43.969Z,14.50
2019-04-09T12:25:28.226Z,14.30
2019-04-09T12:27:58.083Z,14.40
2019-04-09T12:30:36.682Z,14.50
2019-04-09T12:33:25.252Z,14.60
2019-04-09T12:35:56.854Z,14.60
2019-04-09T12:38:45.367Z,14.70
2019-04-09T12:41:23.450Z,14.80
2019-04-09T12:43:53.843Z,14.90
2019-04-09T12:46:34.080Z,15.10
2019-04-09T12:49:04.287Z,15.20
2019-04-09T12:51:35.777Z,15.20
2019-04-09T12:54:08.437Z,15.20
2019-04-09T12:56:47.001Z,15.30
2019-04-09T12:59:25.403Z,15.40
2019-04-09T13:02:00.783Z,15.40
2019-04-09T13:04:50.767Z,15.50
2019-04-09T13:07:21.277Z,15.60
2019-04-09T13:10:09.457Z,15.70
2019-04-09T13:12:44.449Z,15.70
2019-04-09T13:15:32.883Z,15.60
2019-04-09T13:18:07.034Z,15.70
2019-04-09T13:20:38.579Z,15.70
2019-04-09T13:23:25.984Z,15.80
2019-04-09T13:26:14.193Z,15.80
2019-04-09T13:28:52.933Z,15.80
2019-04-09T13:31:23.331Z,15.90
2019-04-09T13:33:53.276Z,16.00
2019-04-09T13:36:42.012Z,16.10
2019-04-09T13:39:29.544Z,16.20
2019-04-09T13:42:14.303Z,16.10
2019-04-09T13:44:47.365Z,16.00
2019-04-09T13:47:21.678Z,15.90
2019-04-09T13:50:00.065Z,16.00
2019-04-09T13:52:40.306Z,16.20
2019-04-09T13:55:12.524Z,16.20
2019-04-09T13:57:42.453Z,16.00
2019-04-09T14:00:16.692Z,16.20
2019-04-09T14:03:25.392Z,16.10
2019-04-09T14:05:38.023Z,16.10
2019-04-09T14:08:08.799Z,16.20
2019-04-09T14:10:49.697Z,16.50
2019-04-09T14:13:10.429Z,16.30
2019-04-09T14:15:40.677Z,16.30
2019-04-09T14:18:10.715Z,16.40
2019-04-09T14:20:40.974Z,16.00
2019-04-09T14:23:12.114Z,16.20
2019-04-09T14:25:42.003Z,16.50
2019-04-09T14:28:11.757Z,16.70
2019-04-09T14:30:42.339Z,16.80
2019-04-09T14:33:13.043Z,16.60
2019-04-09T14:35:43.710Z,16.60
2019-04-09T14:38:13.765Z,16.60
2019-04-09T14:40:43.951Z,16.60
2019-04-09T14:43:13.779Z,16.70
2019-04-09T14:45:43.459Z,16.70
2019-04-09T14:48:13.355Z,16.40
2019-04-09T14:50:44.144Z,16.40
2019-04-09T14:53:14.579Z,16.30
2019-04-09T14:55:44.937Z,16.10
2019-04-09T14:58:15.162Z,16.10
2019-04-09T15:00:45.641Z,16.20
2019-04-09T15:03:24.008Z,16.40
2019-04-09T15:05:47.615Z,16.20
2019-04-09T15:08:17.522Z,16.00
2019-04-09T15:10:47.368Z,15.80
2019-04-09T15:13:17.775Z,15.90
2019-04-09T15:15:47.583Z,15.80
2019-04-09T15:18:17.578Z,15.70
2019-04-09T15:20:49.822Z,15.50
2019-04-09T15:23:19.704Z,15.40
2019-04-09T15:25:49.357Z,15.40
2019-04-09T15:28:19.340Z,15.30
2019-04-09T15:30:49.008Z,15.30
2019-04-09T15:33:28.106Z,15.20
2019-04-09T15:35:51.512Z,15.30
2019-04-09T15:38:21.456Z,15.30
2019-04-09T15:40:51.380Z,15.20
2019-04-09T15:43:22.089Z,15.10
2019-04-09T15:45:51.969Z,15.00
2019-04-09T15:48:22.450Z,15.00
2019-04-09T15:50:52.754Z,15.00
2019-04-09T15:53:32.184Z,14.90
2019-04-09T15:55:54.126Z,14.80
2019-04-09T15:58:24.122Z,14.70
2019-04-09T16:00:54.819Z,14.70
2019-04-09T16:03:29.894Z,14.70
2019-04-09T16:05:56.975Z,14.60
2019-04-09T16:08:26.684Z,14.70
2019-04-09T16:10:57.604Z,14.70
2019-04-09T16:13:27.499Z,14.70
2019-04-09T16:15:58.007Z,14.70
2019-04-09T16:18:27.908Z,14.60
2019-04-09T16:20:59.029Z,14.60
2019-04-09T16:23:30.607Z,14.60
2019-04-09T16:26:00.854Z,14.60
2019-04-09T16:28:30.789Z,14.50
2019-04-09T16:31:02.253Z,14.50
2019-04-09T16:33:32.299Z,14.50
2019-04-09T16:36:02.019Z,14.50
2019-04-09T16:38:32.326Z,14.40
2019-04-09T16:41:02.023Z,14.40
2019-04-09T16:43:31.835Z,14.30
2019-04-09T16:46:01.989Z,14.20
2019-04-09T16:48:32.052Z,14.20
2019-04-09T16:51:02.313Z,14.10
2019-04-09T16:53:33.289Z,14.00
2019-04-09T16:56:03.310Z,14.00
2019-04-09T16:58:33.290Z,14.00
2019-04-09T17:01:03.340Z,14.00
2019-04-09T17:03:39.708Z,14.00
2019-04-09T17:06:06.641Z,14.00
2019-04-09T17:08:37.785Z,14.00
2019-04-09T17:11:08.086Z,13.90
2019-04-09T17:13:37.857Z,13.90
2019-04-09T17:16:08.483Z,13.90
2019-04-09T17:18:38.240Z,13.90
2019-04-09T17:21:08.144Z,13.80
2019-04-09T17:23:37.906Z,13.80
2019-04-09T17:26:07.677Z,13.80
2019-04-09T17:28:37.559Z,13.70
2019-04-09T17:31:07.788Z,13.70
2019-04-09T17:33:37.479Z,13.70
2019-04-09T17:36:07.430Z,13.60
2019-04-09T17:38:37.124Z,13.60
2019-04-09T17:41:08.188Z,13.60
2019-04-09T17:43:38.096Z,13.50
2019-04-09T17:46:07.989Z,13.50
2019-04-09T17:48:37.675Z,13.50
2019-04-09T17:51:08.822Z,13.50
2019-04-09T17:53:39.406Z,13.40
2019-04-09T17:56:09.828Z,13.40
2019-04-09T17:58:39.906Z,13.40
2019-04-09T18:01:11.145Z,13.30
2019-04-09T18:03:41.752Z,13.30
2019-04-09T18:06:12.469Z,13.30
2019-04-09T18:08:43.153Z,13.20
2019-04-09T18:11:13.074Z,13.20
2019-04-09T18:13:43.668Z,13.20
2019-04-09T18:16:14.135Z,13.10
2019-04-09T18:18:44.328Z,13.10
2019-04-09T18:21:14.389Z,13.10
2019-04-09T18:23:44.634Z,13.00
2019-04-09T18:26:14.767Z,12.90
2019-04-09T18:28:44.895Z,12.90
2019-04-09T18:31:25.130Z,12.90
2019-04-09T18:33:46.797Z,12.90
2019-04-09T18:36:17.713Z,12.90
2019-04-09T18:38:47.545Z,12.90
2019-04-09T18:41:17.928Z,12.80
2019-04-09T18:43:48.794Z,12.70
2019-04-09T18:46:18.767Z,12.70
2019-04-09T18:48:50.743Z,12.70
2019-04-09T18:51:20.551Z,12.70
2019-04-09T18:53:51.369Z,12.60
2019-04-09T18:56:22.072Z,12.60
2019-04-09T18:58:51.921Z,12.60
2019-04-09T19:01:22.659Z,12.60
2019-04-09T19:04:05.575Z,12.60
2019-04-09T19:06:24.151Z,12.60
2019-04-09T19:08:54.245Z,12.60
2019-04-09T19:11:24.207Z,12.60
2019-04-09T19:13:55.509Z,12.50
2019-04-09T19:16:26.381Z,12.50
2019-04-09T19:18:56.270Z,12.40
2019-04-09T19:21:26.938Z,12.40
2019-04-09T19:23:56.950Z,12.40
2019-04-09T19:26:27.624Z,12.40
2019-04-09T19:28:58.154Z,12.30
2019-04-09T19:31:27.869Z,12.40
2019-04-09T19:33:58.538Z,12.30
2019-04-09T19:36:28.482Z,12.30
2019-04-09T19:38:59.065Z,12.30
2019-04-09T19:41:29.930Z,12.30
2019-04-09T19:44:00.856Z,12.30
2019-04-09T19:46:31.005Z,12.20
2019-04-09T19:49:00.857Z,12.20
2019-04-09T19:51:31.407Z,12.20
2019-04-09T19:54:01.352Z,12.20
2019-04-09T19:56:31.258Z,12.20
2019-04-09T19:59:02.001Z,12.10
2019-04-09T20:01:32.332Z,12.10
2019-04-09T20:04:03.191Z,12.10
2019-04-09T20:06:34.001Z,12.10
2019-04-09T20:09:05.294Z,12.10
2019-04-09T20:11:35.251Z,12.00
2019-04-09T20:14:05.181Z,12.00
2019-04-09T20:16:35.172Z,12.00
2019-04-09T20:19:04.974Z,12.00
2019-04-09T20:21:34.768Z,12.00
2019-04-09T20:24:04.753Z,11.90
2019-04-09T20:26:34.683Z,11.90
2019-04-09T20:29:04.568Z,11.90
2019-04-09T20:31:34.670Z,11.90
2019-04-09T20:34:04.423Z,11.90
2019-04-09T20:36:34.302Z,11.80
2019-04-09T20:39:05.819Z,11.80
2019-04-09T20:41:35.643Z,11.80
2019-04-09T20:44:05.580Z,11.80
2019-04-09T20:46:35.910Z,11.70
2019-04-09T20:49:06.110Z,11.70
2019-04-09T20:51:36.706Z,11.70
2019-04-09T20:54:08.724Z,11.70
2019-04-09T20:56:38.536Z,11.70
2019-04-09T20:59:37.192Z,11.60
2019-04-09T21:02:12.296Z,11.60
2019-04-09T21:04:43.439Z,11.60
2019-04-09T21:07:13.172Z,11.60
2019-04-09T21:09:43.813Z,11.60
2019-04-09T21:12:13.559Z,11.60
2019-04-09T21:14:43.235Z,11.50
2019-04-09T21:17:13.453Z,11.40
2019-04-09T21:19:44.176Z,11.40
2019-04-09T21:22:14.614Z,11.40
2019-04-09T21:24:44.494Z,11.30
2019-04-09T21:27:16.602Z,11.30
2019-04-09T21:29:46.810Z,11.30
2019-04-09T21:32:16.569Z,11.20
2019-04-09T21:34:46.499Z,11.20
2019-04-09T21:37:16.347Z,11.20
2019-04-09T21:39:46.112Z,11.20
2019-04-09T21:42:16.042Z,11.20
2019-04-09T21:44:45.792Z,11.10
2019-04-09T21:47:16.347Z,11.10
2019-04-09T21:49:46.429Z,11.00
2019-04-09T21:52:16.696Z,11.00
2019-04-09T21:54:47.457Z,10.90
2019-04-09T21:57:17.117Z,10.90
2019-04-09T21:59:47.086Z,10.90
2019-04-09T22:02:18.389Z,10.90
2019-04-09T22:04:48.435Z,10.80
2019-04-09T22:07:18.927Z,10.80
2019-04-09T22:09:49.370Z,10.80
2019-04-09T22:12:19.795Z,10.80
2019-04-09T22:14:50.572Z,10.70
2019-04-09T22:17:21.454Z,10.70
2019-04-09T22:19:51.241Z,10.70
2019-04-09T22:22:21.090Z,10.60
2019-04-09T22:24:50.895Z,10.60
2019-04-09T22:27:20.607Z,10.60
2019-04-09T22:29:50.325Z,10.60
2019-04-09T22:32:20.122Z,10.60
2019-04-09T22:34:50.632Z,10.50
2019-04-09T22:37:20.366Z,10.50
2019-04-09T22:39:50.541Z,10.50
2019-04-09T22:42:20.519Z,10.50
2019-04-09T22:44:51.142Z,10.40
2019-04-09T22:47:20.956Z,10.30
2019-04-09T22:49:51.171Z,10.30
2019-04-09T22:52:21.198Z,10.30
2019-04-09T22:54:51.767Z,10.30
2019-04-09T22:57:21.996Z,10.20
2019-04-09T22:59:52.213Z,10.20
2019-04-09T23:02:36.401Z,10.10
2019-04-09T23:05:22.581Z,10.10
2019-04-09T23:07:56.805Z,10.00
2019-04-09T23:10:28.326Z,10.00
2019-04-09T23:13:00.454Z,10.00
2019-04-09T23:15:37.683Z,10.00
2019-04-09T23:18:07.405Z,9.90
2019-04-09T23:20:37.148Z,9.90
2019-04-09T23:23:06.937Z,9.80
2019-04-09T23:25:37.129Z,9.70
2019-04-09T23:28:07.366Z,9.70
2019-04-09T23:30:37.828Z,9.70
2019-04-09T23:33:08.023Z,9.60
2019-04-09T23:35:37.817Z,9.60
2019-04-09T23:38:08.334Z,9.60
2019-04-09T23:40:38.274Z,9.60
2019-04-09T23:43:07.954Z,9.60
2019-04-09T23:45:38.802Z,9.50
2019-04-09T23:48:08.576Z,9.50
2019-04-09T23:50:38.299Z,9.50
2019-04-09T23:53:08.588Z,9.40
2019-04-09T23:55:38.741Z,9.40
2019-04-09T23:58:09.143Z,9.30
